sensor_id;sensor_type;location;lat;lon;timestamp;pressure;altitude;pressure_sealevel;temperature;humidity
11329;BME280;5719;42.714;23.732;2022-09-27T00:00:40;93572.97;;;15.57;100.00
11329;BME280;5719;42.714;23.732;2022-09-27T00:03:09;93577.34;;;15.49;100.00
11329;BME280;5719;42.714;23.732;2022-09-27T00:05:36;93573.41;;;15.45;100.00
11329;BME280;5719;42.714;23.732;2022-09-27T00:08:04;93569.00;;;15.45;100.00
11329;BME280;5719;42.714;23.732;2022-09-27T00:10:31;93563.81;;;15.45;100.00
11329;BME280;5719;42.714;23.732;2022-09-27T00:12:58;93566.09;;;15.48;100.00
11329;BME280;5719;42.714;23.732;2022-09-27T00:15:25;93561.56;;;15.50;100.00
11329;BME280;5719;42.714;23.732;2022-09-27T00:17:52;93564.81;;;15.52;100.00
11329;BME280;5719;42.714;23.732;2022-09-27T00:20:21;93553.59;;;15.52;100.00
11329;BME280;5719;42.714;23.732;2022-09-27T00:22:48;93556.03;;;15.53;100.00
11329;BME280;5719;42.714;23.732;2022-09-27T00:25:15;93550.50;;;15.56;100.00
11329;BME280;5719;42.714;23.732;2022-09-27T00:27:43;93565.66;;;15.61;100.00
11329;BME280;5719;42.714;23.732;2022-09-27T00:30:11;93553.78;;;15.58;100.00
11329;BME280;5719;42.714;23.732;2022-09-27T00:32:38;93552.94;;;15.58;100.00
11329;BME280;5719;42.714;23.732;2022-09-27T00:35:06;93551.47;;;15.63;100.00
11329;BME280;5719;42.714;23.732;2022-09-27T00:37:34;93556.69;;;15.63;100.00
11329;BME280;5719;42.714;23.732;2022-09-27T00:40:01;93555.03;;;15.46;100.00
11329;BME280;5719;42.714;23.732;2022-09-27T00:42:28;93554.69;;;15.33;100.00
11329;BME280;5719;42.714;23.732;2022-09-27T00:45:15;93564.13;;;15.42;100.00
11329;BME280;5719;42.714;23.732;2022-09-27T00:47:49;93569.53;;;15.41;100.00
11329;BME280;5719;42.714;23.732;2022-09-27T00:50:23;93571.63;;;15.37;100.00
11329;BME280;5719;42.714;23.732;2022-09-27T00:53:01;93560.06;;;15.32;100.00
11329;BME280;5719;42.714;23.732;2022-09-27T00:55:33;93557.44;;;15.32;100.00
11329;BME280;5719;42.714;23.732;2022-09-27T00:58:02;93559.88;;;15.41;100.00
11329;BME280;5719;42.714;23.732;2022-09-27T01:00:30;93561.88;;;15.47;100.00
11329;BME280;5719;42.714;23.732;2022-09-27T01:02:57;93558.63;;;15.53;100.00
11329;BME280;5719;42.714;23.732;2022-09-27T01:05:27;93563.84;;;15.53;100.00
11329;BME280;5719;42.714;23.732;2022-09-27T01:07:55;93563.38;;;15.58;100.00
11329;BME280;5719;42.714;23.732;2022-09-27T01:10:27;93571.81;;;15.60;100.00
11329;BME280;5719;42.714;23.732;2022-09-27T01:13:03;93560.28;;;15.62;100.00
11329;BME280;5719;42.714;23.732;2022-09-27T01:15:37;93560.78;;;15.66;100.00
11329;BME280;5719;42.714;23.732;2022-09-27T01:18:16;93543.16;;;15.68;100.00
11329;BME280;5719;42.714;23.732;2022-09-27T01:21:04;93548.88;;;15.72;100.00
11329;BME280;5719;42.714;23.732;2022-09-27T01:23:48;93552.78;;;15.67;100.00
11329;BME280;5719;42.714;23.732;2022-09-27T01:26:29;93541.88;;;15.72;100.00
11329;BME280;5719;42.714;23.732;2022-09-27T01:29:06;93539.41;;;15.79;100.00
11329;BME280;5719;42.714;23.732;2022-09-27T01:31:41;93530.47;;;15.73;100.00
11329;BME280;5719;42.714;23.732;2022-09-27T01:34:19;93538.44;;;15.72;100.00
11329;BME280;5719;42.714;23.732;2022-09-27T01:36:53;93534.72;;;15.66;100.00
11329;BME280;5719;42.714;23.732;2022-09-27T01:39:33;93529.19;;;15.69;100.00
11329;BME280;5719;42.714;23.732;2022-09-27T01:42:11;93527.69;;;15.66;100.00
11329;BME280;5719;42.714;23.732;2022-09-27T01:44:45;93531.09;;;15.67;100.00
11329;BME280;5719;42.714;23.732;2022-09-27T01:47:17;93537.13;;;15.67;100.00
11329;BME280;5719;42.714;23.732;2022-09-27T01:49:51;93534.72;;;15.66;100.00
11329;BME280;5719;42.714;23.732;2022-09-27T01:52:23;93533.22;;;15.72;100.00
11329;BME280;5719;42.714;23.732;2022-09-27T01:54:56;93536.81;;;15.70;100.00
11329;BME280;5719;42.714;23.732;2022-09-27T01:57:30;93527.88;;;15.65;100.00
11329;BME280;5719;42.714;23.732;2022-09-27T02:00:01;93516.28;;;15.59;100.00
11329;BME280;5719;42.714;23.732;2022-09-27T02:02:33;93525.41;;;15.63;100.00
11329;BME280;5719;42.714;23.732;2022-09-27T02:05:04;93521.69;;;15.58;100.00
11329;BME280;5719;42.714;23.732;2022-09-27T02:07:38;93534.72;;;15.58;100.00
11329;BME280;5719;42.714;23.732;2022-09-27T02:10:09;93525.09;;;15.58;100.00
11329;BME280;5719;42.714;23.732;2022-09-27T02:12:45;93527.72;;;15.58;100.00
11329;BME280;5719;42.714;23.732;2022-09-27T02:15:13;93524.94;;;15.60;100.00
11329;BME280;5719;42.714;23.732;2022-09-27T02:17:46;93521.84;;;15.56;100.00
11329;BME280;5719;42.714;23.732;2022-09-27T02:20:18;93517.94;;;15.60;100.00
11329;BME280;5719;42.714;23.732;2022-09-27T02:22:50;93512.25;;;15.65;100.00
11329;BME280;5719;42.714;23.732;2022-09-27T02:25:23;93503.25;;;15.67;100.00
11329;BME280;5719;42.714;23.732;2022-09-27T02:27:56;93506.34;;;15.71;100.00
11329;BME280;5719;42.714;23.732;2022-09-27T02:30:25;93493.81;;;15.75;100.00
11329;BME280;5719;42.714;23.732;2022-09-27T02:32:53;93495.94;;;15.79;100.00
11329;BME280;5719;42.714;23.732;2022-09-27T02:35:24;93498.53;;;15.79;100.00
11329;BME280;5719;42.714;23.732;2022-09-27T02:37:54;93500.16;;;15.80;100.00
11329;BME280;5719;42.714;23.732;2022-09-27T02:40:21;93476.06;;;15.78;100.00
11329;BME280;5719;42.714;23.732;2022-09-27T02:42:49;93461.91;;;15.81;100.00
11329;BME280;5719;42.714;23.732;2022-09-27T02:45:17;93474.25;;;15.79;100.00
11329;BME280;5719;42.714;23.732;2022-09-27T02:48:01;93469.06;;;15.70;100.00
11329;BME280;5719;42.714;23.732;2022-09-27T02:51:05;93452.44;;;15.72;100.00
11329;BME280;5719;42.714;23.732;2022-09-27T02:53:43;93450.81;;;15.70;100.00
11329;BME280;5719;42.714;23.732;2022-09-27T02:56:21;93447.56;;;15.68;100.00
11329;BME280;5719;42.714;23.732;2022-09-27T02:58:58;93430.97;;;15.69;100.00
11329;BME280;5719;42.714;23.732;2022-09-27T03:01:39;93433.59;;;15.69;100.00
11329;BME280;5719;42.714;23.732;2022-09-27T03:04:16;93433.25;;;15.64;100.00
11329;BME280;5719;42.714;23.732;2022-09-27T03:06:46;93436.34;;;15.60;100.00
11329;BME280;5719;42.714;23.732;2022-09-27T03:09:17;93427.72;;;15.59;100.00
11329;BME280;5719;42.714;23.732;2022-09-27T03:11:45;93440.78;;;15.51;100.00
11329;BME280;5719;42.714;23.732;2022-09-27T03:14:12;93444.84;;;15.30;100.00
11329;BME280;5719;42.714;23.732;2022-09-27T03:16:38;93440.78;;;15.19;100.00
11329;BME280;5719;42.714;23.732;2022-09-27T03:19:05;93438.97;;;15.19;100.00
11329;BME280;5719;42.714;23.732;2022-09-27T03:21:34;93445.31;;;15.25;100.00
11329;BME280;5719;42.714;23.732;2022-09-27T03:24:02;93432.78;;;15.29;100.00
11329;BME280;5719;42.714;23.732;2022-09-27T03:26:29;93420.72;;;15.28;100.00
11329;BME280;5719;42.714;23.732;2022-09-27T03:28:55;93410.50;;;15.26;100.00
11329;BME280;5719;42.714;23.732;2022-09-27T03:31:22;93401.38;;;15.22;100.00
11329;BME280;5719;42.714;23.732;2022-09-27T03:33:49;93409.19;;;15.22;100.00
11329;BME280;5719;42.714;23.732;2022-09-27T03:36:16;93414.75;;;15.19;100.00
11329;BME280;5719;42.714;23.732;2022-09-27T03:38:44;93409.34;;;15.20;100.00
11329;BME280;5719;42.714;23.732;2022-09-27T03:41:11;93392.44;;;15.25;100.00
11329;BME280;5719;42.714;23.732;2022-09-27T03:43:38;93390.31;;;15.28;100.00
11329;BME280;5719;42.714;23.732;2022-09-27T03:46:05;93391.75;;;15.31;100.00
11329;BME280;5719;42.714;23.732;2022-09-27T03:48:32;93388.81;;;15.34;100.00
11329;BME280;5719;42.714;23.732;2022-09-27T03:50:59;93383.13;;;15.38;100.00
11329;BME280;5719;42.714;23.732;2022-09-27T03:53:26;93395.50;;;15.44;100.00
11329;BME280;5719;42.714;23.732;2022-09-27T03:55:54;93400.22;;;15.49;100.00
11329;BME280;5719;42.714;23.732;2022-09-27T03:58:21;93392.72;;;15.54;100.00
11329;BME280;5719;42.714;23.732;2022-09-27T04:00:48;93392.88;;;15.60;100.00
11329;BME280;5719;42.714;23.732;2022-09-27T04:03:15;93390.75;;;15.64;100.00
11329;BME280;5719;42.714;23.732;2022-09-27T04:05:43;93383.41;;;15.67;100.00
11329;BME280;5719;42.714;23.732;2022-09-27T04:08:10;93381.47;;;15.69;100.00
11329;BME280;5719;42.714;23.732;2022-09-27T04:10:38;93384.06;;;15.69;100.00
11329;BME280;5719;42.714;23.732;2022-09-27T04:13:06;93390.88;;;15.70;100.00
11329;BME280;5719;42.714;23.732;2022-09-27T04:15:33;93398.22;;;15.67;100.00
11329;BME280;5719;42.714;23.732;2022-09-27T04:18:00;93392.03;;;15.68;100.00
11329;BME280;5719;42.714;23.732;2022-09-27T04:20:27;93377.84;;;15.70;100.00
11329;BME280;5719;42.714;23.732;2022-09-27T04:22:54;93384.56;;;15.65;100.00
11329;BME280;5719;42.714;23.732;2022-09-27T04:25:22;93379.56;;;15.55;100.00
11329;BME280;5719;42.714;23.732;2022-09-27T04:27:49;93372.06;;;15.52;100.00
11329;BME280;5719;42.714;23.732;2022-09-27T04:30:21;93374.31;;;15.47;100.00
11329;BME280;5719;42.714;23.732;2022-09-27T04:32:49;93360.63;;;15.45;100.00
11329;BME280;5719;42.714;23.732;2022-09-27T04:35:16;93358.38;;;15.42;100.00
11329;BME280;5719;42.714;23.732;2022-09-27T04:38:01;93343.75;;;15.33;100.00
11329;BME280;5719;42.714;23.732;2022-09-27T04:40:28;93353.34;;;15.33;100.00
11329;BME280;5719;42.714;23.732;2022-09-27T04:42:55;93351.56;;;15.33;100.00
11329;BME280;5719;42.714;23.732;2022-09-27T04:45:23;93344.75;;;15.16;100.00
11329;BME280;5719;42.714;23.732;2022-09-27T04:47:50;93352.56;;;15.16;100.00
11329;BME280;5719;42.714;23.732;2022-09-27T04:50:17;93347.34;;;15.16;100.00
11329;BME280;5719;42.714;23.732;2022-09-27T04:52:49;93349.31;;;15.22;100.00
11329;BME280;5719;42.714;23.732;2022-09-27T04:55:17;93350.91;;;15.23;100.00
11329;BME280;5719;42.714;23.732;2022-09-27T04:57:44;93354.53;;;15.22;100.00
11329;BME280;5719;42.714;23.732;2022-09-27T05:00:12;93373.22;;;15.26;100.00
11329;BME280;5719;42.714;23.732;2022-09-27T05:02:41;93384.59;;;15.33;100.00
11329;BME280;5719;42.714;23.732;2022-09-27T05:05:08;93389.00;;;15.40;100.00
11329;BME280;5719;42.714;23.732;2022-09-27T05:07:36;93396.78;;;15.48;100.00
11329;BME280;5719;42.714;23.732;2022-09-27T05:10:04;93400.53;;;15.46;100.00
11329;BME280;5719;42.714;23.732;2022-09-27T05:12:31;93395.16;;;15.47;100.00
11329;BME280;5719;42.714;23.732;2022-09-27T05:14:58;93395.50;;;15.52;100.00
11329;BME280;5719;42.714;23.732;2022-09-27T05:17:25;93384.75;;;15.55;100.00
11329;BME280;5719;42.714;23.732;2022-09-27T05:19:53;93390.94;;;15.54;100.00
11329;BME280;5719;42.714;23.732;2022-09-27T05:22:20;93395.81;;;15.57;100.00
11329;BME280;5719;42.714;23.732;2022-09-27T05:24:47;93397.44;;;15.58;100.00
11329;BME280;5719;42.714;23.732;2022-09-27T05:27:15;93382.78;;;15.57;100.00
11329;BME280;5719;42.714;23.732;2022-09-27T05:29:44;93386.03;;;15.59;100.00
11329;BME280;5719;42.714;23.732;2022-09-27T05:32:12;93388.31;;;15.62;100.00
11329;BME280;5719;42.714;23.732;2022-09-27T05:34:39;93385.53;;;15.64;100.00
11329;BME280;5719;42.714;23.732;2022-09-27T05:37:08;93385.38;;;15.65;100.00
11329;BME280;5719;42.714;23.732;2022-09-27T05:39:35;93377.56;;;15.65;100.00
11329;BME280;5719;42.714;23.732;2022-09-27T05:42:02;93377.91;;;15.62;100.00
11329;BME280;5719;42.714;23.732;2022-09-27T05:44:31;93370.72;;;15.64;100.00
11329;BME280;5719;42.714;23.732;2022-09-27T05:47:00;93375.25;;;15.70;100.00
11329;BME280;5719;42.714;23.732;2022-09-27T05:49:28;93377.53;;;15.74;100.00
11329;BME280;5719;42.714;23.732;2022-09-27T05:51:55;93370.69;;;15.73;100.00
11329;BME280;5719;42.714;23.732;2022-09-27T05:54:24;93378.19;;;15.76;100.00
11329;BME280;5719;42.714;23.732;2022-09-27T05:56:53;93389.06;;;15.79;100.00
11329;BME280;5719;42.714;23.732;2022-09-27T05:59:23;93396.91;;;15.71;100.00
11329;BME280;5719;42.714;23.732;2022-09-27T06:01:50;93402.47;;;15.68;100.00
11329;BME280;5719;42.714;23.732;2022-09-27T06:04:17;93398.75;;;15.62;100.00
11329;BME280;5719;42.714;23.732;2022-09-27T06:06:44;93413.09;;;15.58;100.00
11329;BME280;5719;42.714;23.732;2022-09-27T06:09:12;93412.91;;;15.60;100.00
11329;BME280;5719;42.714;23.732;2022-09-27T06:11:43;93410.63;;;15.65;100.00
11329;BME280;5719;42.714;23.732;2022-09-27T06:14:10;93402.94;;;15.72;100.00
11329;BME280;5719;42.714;23.732;2022-09-27T06:16:38;93404.56;;;15.73;100.00
11329;BME280;5719;42.714;23.732;2022-09-27T06:19:05;93400.19;;;15.73;100.00
11329;BME280;5719;42.714;23.732;2022-09-27T06:21:31;93400.31;;;15.80;100.00
11329;BME280;5719;42.714;23.732;2022-09-27T06:23:58;93401.28;;;15.87;100.00
11329;BME280;5719;42.714;23.732;2022-09-27T06:26:25;93399.00;;;15.92;100.00
11329;BME280;5719;42.714;23.732;2022-09-27T06:28:54;93394.41;;;15.94;100.00
11329;BME280;5719;42.714;23.732;2022-09-27T06:31:21;93387.75;;;15.91;100.00
11329;BME280;5719;42.714;23.732;2022-09-27T06:33:48;93388.22;;;15.95;100.00
11329;BME280;5719;42.714;23.732;2022-09-27T06:36:16;93380.22;;;15.96;100.00
11329;BME280;5719;42.714;23.732;2022-09-27T06:38:43;93382.19;;;15.94;100.00
11329;BME280;5719;42.714;23.732;2022-09-27T06:41:14;93376.47;;;15.99;100.00
11329;BME280;5719;42.714;23.732;2022-09-27T06:43:41;93377.09;;;16.01;100.00
11329;BME280;5719;42.714;23.732;2022-09-27T06:46:09;93376.41;;;16.07;100.00
11329;BME280;5719;42.714;23.732;2022-09-27T06:48:36;93377.06;;;16.09;100.00
11329;BME280;5719;42.714;23.732;2022-09-27T06:51:04;93381.94;;;16.12;100.00
11329;BME280;5719;42.714;23.732;2022-09-27T06:53:31;93378.03;;;16.16;100.00
11329;BME280;5719;42.714;23.732;2022-09-27T06:55:58;93390.84;;;16.26;100.00
11329;BME280;5719;42.714;23.732;2022-09-27T06:58:26;93405.16;;;16.30;100.00
11329;BME280;5719;42.714;23.732;2022-09-27T07:01:07;93388.53;;;16.31;100.00
11329;BME280;5719;42.714;23.732;2022-09-27T07:03:35;93381.50;;;16.39;100.00
11329;BME280;5719;42.714;23.732;2022-09-27T07:06:08;93369.03;;;16.49;100.00
11329;BME280;5719;42.714;23.732;2022-09-27T07:08:37;93381.72;;;16.52;100.00
11329;BME280;5719;42.714;23.732;2022-09-27T07:11:06;93388.41;;;16.55;100.00
11329;BME280;5719;42.714;23.732;2022-09-27T07:13:33;93393.94;;;16.60;100.00
11329;BME280;5719;42.714;23.732;2022-09-27T07:16:05;93410.06;;;16.63;100.00
11329;BME280;5719;42.714;23.732;2022-09-27T07:18:32;93406.50;;;16.64;100.00
11329;BME280;5719;42.714;23.732;2022-09-27T07:21:00;93395.22;;;16.64;100.00
11329;BME280;5719;42.714;23.732;2022-09-27T07:23:27;93390.81;;;16.64;100.00
11329;BME280;5719;42.714;23.732;2022-09-27T07:25:54;93403.53;;;16.67;100.00
11329;BME280;5719;42.714;23.732;2022-09-27T07:28:21;93396.97;;;16.72;100.00
11329;BME280;5719;42.714;23.732;2022-09-27T07:30:52;93391.22;;;16.76;100.00
11329;BME280;5719;42.714;23.732;2022-09-27T07:33:20;93370.88;;;16.72;100.00
11329;BME280;5719;42.714;23.732;2022-09-27T07:35:47;93388.78;;;16.75;100.00
11329;BME280;5719;42.714;23.732;2022-09-27T07:38:15;93364.34;;;16.76;100.00
11329;BME280;5719;42.714;23.732;2022-09-27T07:40:43;93378.97;;;16.77;100.00
11329;BME280;5719;42.714;23.732;2022-09-27T07:43:10;93384.19;;;16.77;100.00
11329;BME280;5719;42.714;23.732;2022-09-27T07:45:37;93372.94;;;16.76;100.00
11329;BME280;5719;42.714;23.732;2022-09-27T07:48:05;93371.00;;;16.78;100.00
11329;BME280;5719;42.714;23.732;2022-09-27T07:50:32;93378.13;;;16.84;100.00
11329;BME280;5719;42.714;23.732;2022-09-27T07:52:59;93373.66;;;16.93;100.00
11329;BME280;5719;42.714;23.732;2022-09-27T07:55:27;93373.13;;;16.97;100.00
11329;BME280;5719;42.714;23.732;2022-09-27T07:58:01;93371.50;;;16.96;100.00
11329;BME280;5719;42.714;23.732;2022-09-27T08:00:28;93387.28;;;17.03;100.00
11329;BME280;5719;42.714;23.732;2022-09-27T08:02:55;93409.63;;;16.83;100.00
11329;BME280;5719;42.714;23.732;2022-09-27T08:05:22;93418.53;;;16.65;100.00
11329;BME280;5719;42.714;23.732;2022-09-27T08:07:53;93414.50;;;16.55;100.00
11329;BME280;5719;42.714;23.732;2022-09-27T08:10:21;93403.22;;;16.62;100.00
11329;BME280;5719;42.714;23.732;2022-09-27T08:12:51;93382.59;;;16.76;100.00
11329;BME280;5719;42.714;23.732;2022-09-27T08:15:18;93381.19;;;16.88;100.00
11329;BME280;5719;42.714;23.732;2022-09-27T08:17:45;93393.72;;;16.92;100.00
11329;BME280;5719;42.714;23.732;2022-09-27T08:20:12;93394.94;;;17.04;100.00
11329;BME280;5719;42.714;23.732;2022-09-27T08:22:40;93376.56;;;17.12;100.00
11329;BME280;5719;42.714;23.732;2022-09-27T08:25:08;93380.84;;;17.28;100.00
11329;BME280;5719;42.714;23.732;2022-09-27T08:27:34;93371.50;;;17.34;100.00
11329;BME280;5719;42.714;23.732;2022-09-27T08:30:03;93376.72;;;17.19;100.00
11329;BME280;5719;42.714;23.732;2022-09-27T08:32:31;93365.97;;;17.14;100.00
11329;BME280;5719;42.714;23.732;2022-09-27T08:34:58;93360.94;;;17.27;100.00
11329;BME280;5719;42.714;23.732;2022-09-27T08:37:25;93352.31;;;17.41;100.00
11329;BME280;5719;42.714;23.732;2022-09-27T08:39:52;93337.56;;;17.48;100.00
11329;BME280;5719;42.714;23.732;2022-09-27T08:42:26;93348.22;;;17.61;100.00
11329;BME280;5719;42.714;23.732;2022-09-27T08:45:02;93341.56;;;17.74;100.00
11329;BME280;5719;42.714;23.732;2022-09-27T08:47:34;93322.81;;;17.85;100.00
11329;BME280;5719;42.714;23.732;2022-09-27T08:50:12;93322.34;;;17.96;100.00
11329;BME280;5719;42.714;23.732;2022-09-27T08:52:43;93328.63;;;18.01;100.00
11329;BME280;5719;42.714;23.732;2022-09-27T08:55:18;93319.22;;;18.07;100.00
11329;BME280;5719;42.714;23.732;2022-09-27T08:57:49;93303.19;;;18.10;100.00
11329;BME280;5719;42.714;23.732;2022-09-27T09:00:18;93318.75;;;18.18;100.00
11329;BME280;5719;42.714;23.732;2022-09-27T09:02:47;93319.22;;;18.07;100.00
11329;BME280;5719;42.714;23.732;2022-09-27T09:05:26;93317.34;;;18.01;100.00
11329;BME280;5719;42.714;23.732;2022-09-27T09:08:05;93327.00;;;18.00;100.00
11329;BME280;5719;42.714;23.732;2022-09-27T09:10:46;93327.75;;;17.94;100.00
11329;BME280;5719;42.714;23.732;2022-09-27T09:13:44;93333.25;;;17.99;100.00
11329;BME280;5719;42.714;23.732;2022-09-27T09:16:19;93325.31;;;17.93;100.00
11329;BME280;5719;42.714;23.732;2022-09-27T09:19:02;93319.22;;;18.07;100.00
11329;BME280;5719;42.714;23.732;2022-09-27T09:21:39;93309.94;;;18.19;100.00
11329;BME280;5719;42.714;23.732;2022-09-27T09:24:21;93311.31;;;18.36;100.00
11329;BME280;5719;42.714;23.732;2022-09-27T09:26:56;93306.63;;;18.68;100.00
11329;BME280;5719;42.714;23.732;2022-09-27T09:29:36;93320.72;;;18.88;100.00
11329;BME280;5719;42.714;23.732;2022-09-27T09:32:15;93328.53;;;19.09;100.00
11329;BME280;5719;42.714;23.732;2022-09-27T09:34:50;93327.06;;;19.28;100.00
11329;BME280;5719;42.714;23.732;2022-09-27T09:37:22;93332.50;;;19.47;100.00
11329;BME280;5719;42.714;23.732;2022-09-27T09:39:59;93334.66;;;19.72;100.00
11329;BME280;5719;42.714;23.732;2022-09-27T09:42:31;93330.56;;;19.97;100.00
11329;BME280;5719;42.714;23.732;2022-09-27T09:45:03;93321.81;;;20.24;100.00
11329;BME280;5719;42.714;23.732;2022-09-27T09:47:35;93318.09;;;20.60;100.00
11329;BME280;5719;42.714;23.732;2022-09-27T09:50:15;93310.88;;;21.01;100.00
11329;BME280;5719;42.714;23.732;2022-09-27T09:52:46;93303.41;;;21.50;100.00
11329;BME280;5719;42.714;23.732;2022-09-27T09:55:19;93288.94;;;21.86;100.00
11329;BME280;5719;42.714;23.732;2022-09-27T09:57:55;93313.00;;;22.54;100.00
11329;BME280;5719;42.714;23.732;2022-09-27T10:00:25;93312.00;;;22.92;96.04
11329;BME280;5719;42.714;23.732;2022-09-27T10:02:53;93312.94;;;23.29;92.74
11329;BME280;5719;42.714;23.732;2022-09-27T10:05:24;93302.03;;;23.51;90.21
11329;BME280;5719;42.714;23.732;2022-09-27T10:07:52;93289.94;;;23.61;86.74
11329;BME280;5719;42.714;23.732;2022-09-27T10:10:21;93296.78;;;23.69;88.29
11329;BME280;5719;42.714;23.732;2022-09-27T10:12:48;93293.25;;;23.57;86.71
11329;BME280;5719;42.714;23.732;2022-09-27T10:15:17;93292.88;;;23.53;86.28
11329;BME280;5719;42.714;23.732;2022-09-27T10:17:47;93279.97;;;23.45;87.50
11329;BME280;5719;42.714;23.732;2022-09-27T10:20:26;93278.97;;;23.15;81.35
11329;BME280;5719;42.714;23.732;2022-09-27T10:23:00;93277.09;;;22.97;84.30
11329;BME280;5719;42.714;23.732;2022-09-27T10:25:44;93275.16;;;22.86;83.57
11329;BME280;5719;42.714;23.732;2022-09-27T10:28:28;93275.81;;;22.75;79.85
11329;BME280;5719;42.714;23.732;2022-09-27T10:30:59;93264.91;;;22.71;78.86
11329;BME280;5719;42.714;23.732;2022-09-27T10:33:28;93263.50;;;22.69;81.08
11329;BME280;5719;42.714;23.732;2022-09-27T10:35:57;93260.22;;;22.73;82.73
11329;BME280;5719;42.714;23.732;2022-09-27T10:38:28;93267.16;;;22.68;82.07
11329;BME280;5719;42.714;23.732;2022-09-27T10:40:57;93247.75;;;22.56;84.40
11329;BME280;5719;42.714;23.732;2022-09-27T10:43:27;93250.81;;;22.53;82.00
11329;BME280;5719;42.714;23.732;2022-09-27T10:46:11;93252.72;;;22.39;85.31
11329;BME280;5719;42.714;23.732;2022-09-27T10:48:39;93240.75;;;22.43;87.87
11329;BME280;5719;42.714;23.732;2022-09-27T10:51:22;93243.34;;;22.49;83.55
11329;BME280;5719;42.714;23.732;2022-09-27T10:53:51;93245.53;;;22.53;81.83
11329;BME280;5719;42.714;23.732;2022-09-27T10:56:21;93252.91;;;22.37;85.29
11329;BME280;5719;42.714;23.732;2022-09-27T10:58:48;93255.13;;;22.40;84.72
11329;BME280;5719;42.714;23.732;2022-09-27T11:01:16;93259.75;;;22.45;82.84
11329;BME280;5719;42.714;23.732;2022-09-27T11:03:47;93253.38;;;22.66;84.65
11329;BME280;5719;42.714;23.732;2022-09-27T11:06:27;93246.91;;;22.93;83.61
11329;BME280;5719;42.714;23.732;2022-09-27T11:09:08;93241.34;;;23.26;81.64
11329;BME280;5719;42.714;23.732;2022-09-27T11:11:36;93242.78;;;23.71;76.04
11329;BME280;5719;42.714;23.732;2022-09-27T11:14:04;93242.75;;;24.08;72.11
11329;BME280;5719;42.714;23.732;2022-09-27T11:16:57;93224.31;;;24.19;73.56
11329;BME280;5719;42.714;23.732;2022-09-27T11:19:50;93217.97;;;24.38;73.72
11329;BME280;5719;42.714;23.732;2022-09-27T11:22:35;93232.06;;;24.51;72.28
11329;BME280;5719;42.714;23.732;2022-09-27T11:25:16;93228.09;;;24.71;71.22
11329;BME280;5719;42.714;23.732;2022-09-27T11:27:57;93217.81;;;24.93;68.10
11329;BME280;5719;42.714;23.732;2022-09-27T11:30:30;93220.81;;;25.08;66.36
11329;BME280;5719;42.714;23.732;2022-09-27T11:33:17;93218.38;;;24.83;69.85
11329;BME280;5719;42.714;23.732;2022-09-27T11:35:58;93216.69;;;24.71;67.92
11329;BME280;5719;42.714;23.732;2022-09-27T11:38:32;93203.09;;;24.85;67.43
11329;BME280;5719;42.714;23.732;2022-09-27T11:41:13;93205.50;;;25.10;67.09
11329;BME280;5719;42.714;23.732;2022-09-27T11:44:08;93200.47;;;25.44;68.45
11329;BME280;5719;42.714;23.732;2022-09-27T11:46:44;93194.56;;;25.76;68.39
11329;BME280;5719;42.714;23.732;2022-09-27T11:52:15;93193.75;;;25.76;66.18
11329;BME280;5719;42.714;23.732;2022-09-27T11:54:56;93188.06;;;25.56;67.22
11329;BME280;5719;42.714;23.732;2022-09-27T11:57:32;93183.44;;;25.63;69.10
11329;BME280;5719;42.714;23.732;2022-09-27T12:00:07;93179.19;;;26.02;67.62
11329;BME280;5719;42.714;23.732;2022-09-27T12:03:03;93171.22;;;26.42;66.00
11329;BME280;5719;42.714;23.732;2022-09-27T12:05:42;93163.38;;;26.47;62.59
11329;BME280;5719;42.714;23.732;2022-09-27T12:08:26;93180.09;;;26.47;63.00
11329;BME280;5719;42.714;23.732;2022-09-27T12:11:02;93169.25;;;26.82;65.24
11329;BME280;5719;42.714;23.732;2022-09-27T12:13:33;93171.53;;;27.23;62.31
11329;BME280;5719;42.714;23.732;2022-09-27T12:16:03;93168.88;;;27.23;61.76
11329;BME280;5719;42.714;23.732;2022-09-27T12:18:32;93165.59;;;27.50;63.48
11329;BME280;5719;42.714;23.732;2022-09-27T12:21:04;93170.28;;;27.64;61.25
11329;BME280;5719;42.714;23.732;2022-09-27T12:23:38;93163.75;;;27.94;58.95
11329;BME280;5719;42.714;23.732;2022-09-27T12:26:07;93143.56;;;28.14;56.07
11329;BME280;5719;42.714;23.732;2022-09-27T12:28:40;93143.97;;;28.06;57.28
11329;BME280;5719;42.714;23.732;2022-09-27T12:31:14;93134.22;;;28.12;56.79
11329;BME280;5719;42.714;23.732;2022-09-27T12:33:48;93133.16;;;27.91;56.40
11329;BME280;5719;42.714;23.732;2022-09-27T12:36:20;93131.59;;;27.95;55.81
11329;BME280;5719;42.714;23.732;2022-09-27T12:38:55;93129.03;;;27.57;54.66
11329;BME280;5719;42.714;23.732;2022-09-27T12:41:32;93118.66;;;27.77;55.67
11329;BME280;5719;42.714;23.732;2022-09-27T12:44:02;93115.69;;;27.52;53.63
11329;BME280;5719;42.714;23.732;2022-09-27T12:46:35;93121.50;;;27.32;55.33
11329;BME280;5719;42.714;23.732;2022-09-27T12:49:12;93102.25;;;27.03;55.83
11329;BME280;5719;42.714;23.732;2022-09-27T12:51:45;93104.72;;;26.60;56.38
11329;BME280;5719;42.714;23.732;2022-09-27T12:54:29;93105.59;;;26.32;58.44
11329;BME280;5719;42.714;23.732;2022-09-27T12:57:07;93094.22;;;26.48;58.18
11329;BME280;5719;42.714;23.732;2022-09-27T13:03:07;93083.66;;;27.03;55.00
11329;BME280;5719;42.714;23.732;2022-09-27T13:06:08;93071.47;;;27.02;54.10
11329;BME280;5719;42.714;23.732;2022-09-27T13:09:11;93074.75;;;25.98;54.12
11329;BME280;5719;42.714;23.732;2022-09-27T13:11:47;93062.03;;;25.83;58.46
11329;BME280;5719;42.714;23.732;2022-09-27T13:14:23;93075.16;;;25.90;56.16
11329;BME280;5719;42.714;23.732;2022-09-27T13:16:50;93078.78;;;26.00;55.22
11329;BME280;5719;42.714;23.732;2022-09-27T13:19:39;93090.53;;;26.04;55.71
11329;BME280;5719;42.714;23.732;2022-09-27T13:22:08;93095.16;;;25.97;56.70